Time;durP1;ratioP1;P1;durP2;ratioP2;P2;SDS_P1;SDS_P2;PMS_P1;PMS_P2;Temp;Humidity;BMP_temperature;BMP_pressure;BME280_temperature;BME280_humidity;BME280_pressure;Samples;Min_cycle;Max_cycle;Signal;HPM_P1;HPM_P2
2021/04/30 00:01:27;;;;;;;15.20;11.33;;;15.20;99.90;;;;;;5029318;28;20273;-68
2021/04/30 00:03:54;;;;;;;15.13;10.97;;;15.10;99.90;;;;;;5032933;28;20206;-69
2021/04/30 00:06:20;;;;;;;15.47;11.17;;;15.10;99.90;;;;;;5034961;28;20207;-70
2021/04/30 00:08:46;;;;;;;14.83;10.40;;;15.00;99.90;;;;;;5031954;28;20222;-69
2021/04/30 00:11:13;;;;;;;14.30;10.40;;;14.90;99.90;;;;;;5031678;28;20341;-68
2021/04/30 00:13:39;;;;;;;17.87;10.83;;;14.90;99.90;;;;;;5034286;28;20313;-69
2021/04/30 00:16:07;;;;;;;14.43;10.17;;;14.90;99.90;;;;;;5034531;28;20308;-68
2021/04/30 00:18:34;;;;;;;14.47;9.50;;;14.80;99.90;;;;;;5033198;28;20202;-69
2021/04/30 00:21:02;;;;;;;15.60;10.30;;;14.70;99.90;;;;;;5030422;28;20222;-69
2021/04/30 00:23:31;;;;;;;16.43;9.70;;;14.70;99.90;;;;;;5028715;28;20244;-69
2021/04/30 00:25:59;;;;;;;13.43;9.77;;;14.60;99.90;;;;;;5030833;28;21269;-68
2021/04/30 00:28:26;;;;;;;11.93;9.07;;;14.60;99.90;;;;;;5032962;28;20227;-69
2021/04/30 00:30:53;;;;;;;13.30;9.17;;;14.60;99.90;;;;;;5033684;28;20215;-70
2021/04/30 00:33:21;;;;;;;12.00;8.77;;;14.50;99.90;;;;;;5033895;28;20707;-69
2021/04/30 00:35:49;;;;;;;16.10;9.97;;;14.50;99.90;;;;;;5034441;28;20236;-69
2021/04/30 00:38:16;;;;;;;11.83;9.13;;;14.40;99.90;;;;;;5030626;28;20199;-69
2021/04/30 00:40:43;;;;;;;12.43;8.47;;;14.40;99.90;;;;;;5033562;28;20297;-68
2021/04/30 00:43:10;;;;;;;12.20;8.57;;;14.30;99.90;;;;;;5034286;28;20213;-68
2021/04/30 00:45:36;;;;;;;10.57;8.23;;;14.30;99.90;;;;;;5034063;28;20236;-68
2021/04/30 00:48:03;;;;;;;10.80;8.03;;;14.30;99.90;;;;;;5033675;28;20222;-69
2021/04/30 00:50:30;;;;;;;10.07;7.97;;;14.30;99.90;;;;;;5033517;28;20309;-69
2021/04/30 00:52:57;;;;;;;9.87;7.20;;;14.20;99.90;;;;;;5034533;28;20207;-69
2021/04/30 00:55:23;;;;;;;10.23;7.87;;;14.20;99.90;;;;;;5030357;28;20217;-69
2021/04/30 00:57:54;;;;;;;8.53;7.13;;;14.20;99.90;;;;;;5030489;28;20260;-69
2021/04/30 01:00:23;;;;;;;9.70;6.60;;;14.20;99.90;;;;;;5033377;28;20577;-69
2021/04/30 01:02:49;;;;;;;12.40;6.97;;;14.10;99.90;;;;;;5031052;28;20219;-69
2021/04/30 01:05:16;;;;;;;8.83;6.50;;;14.10;99.90;;;;;;5032980;28;20268;-69
2021/04/30 01:07:43;;;;;;;8.50;6.87;;;14.00;99.90;;;;;;5032911;28;20241;-68
2021/04/30 01:10:12;;;;;;;8.80;6.80;;;14.00;99.90;;;;;;5031264;28;20201;-68
2021/04/30 01:12:39;;;;;;;10.03;6.47;;;13.90;99.90;;;;;;5033428;28;20555;-68
2021/04/30 01:15:07;;;;;;;8.60;6.67;;;13.90;99.90;;;;;;5032608;28;20257;-69
2021/04/30 01:17:35;;;;;;;8.03;6.20;;;13.90;99.90;;;;;;5033747;28;20290;-69
2021/04/30 01:20:03;;;;;;;8.47;6.07;;;13.90;99.90;;;;;;5032988;28;20290;-68
2021/04/30 01:22:35;;;;;;;7.53;6.43;;;13.90;99.90;;;;;;5027968;28;20231;-69
2021/04/30 01:25:03;;;;;;;9.90;5.83;;;13.90;99.90;;;;;;5032939;28;20276;-68
2021/04/30 01:27:30;;;;;;;10.23;6.53;;;13.80;99.90;;;;;;5031315;28;20621;-68
2021/04/30 01:29:56;;;;;;;7.47;5.67;;;13.80;99.90;;;;;;5030557;28;20245;-68
2021/04/30 01:32:23;;;;;;;7.53;5.53;;;13.90;99.90;;;;;;5032717;28;20234;-69
2021/04/30 01:34:49;;;;;;;6.73;5.80;;;13.80;99.90;;;;;;5033940;28;20321;-68
2021/04/30 01:37:16;;;;;;;8.10;5.07;;;13.80;99.90;;;;;;5031014;28;20631;-68
2021/04/30 01:39:43;;;;;;;8.07;5.70;;;13.70;99.90;;;;;;5033496;28;20522;-69
2021/04/30 01:42:10;;;;;;;5.37;4.80;;;13.70;99.90;;;;;;5034118;28;20207;-68
2021/04/30 01:44:37;;;;;;;6.07;5.23;;;13.70;99.90;;;;;;5034094;28;20213;-67
2021/04/30 01:47:04;;;;;;;7.17;5.13;;;13.60;99.90;;;;;;5033001;28;20568;-67
2021/04/30 01:49:30;;;;;;;8.33;5.23;;;13.60;99.90;;;;;;5034418;28;20721;-68
2021/04/30 01:51:57;;;;;;;7.67;5.17;;;13.60;99.90;;;;;;5032855;28;20672;-69
2021/04/30 01:54:23;;;;;;;6.00;5.23;;;13.60;99.90;;;;;;5030230;28;20221;-69
2021/04/30 01:56:51;;;;;;;6.30;5.17;;;13.60;99.90;;;;;;5030348;28;20274;-68
2021/04/30 01:59:17;;;;;;;6.10;4.70;;;13.60;99.90;;;;;;5032512;28;20225;-68
2021/04/30 02:01:44;;;;;;;6.03;5.07;;;13.50;99.90;;;;;;5032385;28;20210;-67
2021/04/30 02:04:11;;;;;;;6.33;5.50;;;13.50;99.90;;;;;;5032872;28;20206;-69
2021/04/30 02:06:38;;;;;;;6.83;5.20;;;13.50;99.90;;;;;;5032368;28;20206;-68
2021/04/30 02:09:07;;;;;;;7.03;4.83;;;13.50;99.90;;;;;;5030785;28;20215;-67
2021/04/30 02:11:33;;;;;;;7.00;5.77;;;13.50;99.90;;;;;;5031128;28;20222;-68
2021/04/30 02:14:01;;;;;;;8.60;5.37;;;13.50;99.90;;;;;;5032373;28;20236;-68
2021/04/30 02:16:28;;;;;;;6.93;5.47;;;13.50;99.90;;;;;;5032790;28;20349;-68
2021/04/30 02:18:54;;;;;;;6.17;5.47;;;13.50;99.90;;;;;;5032453;28;20209;-68
2021/04/30 02:21:20;;;;;;;6.47;5.43;;;13.50;99.90;;;;;;5033505;28;20574;-69
2021/04/30 02:23:47;;;;;;;7.97;6.60;;;13.50;99.90;;;;;;5028308;28;20635;-68
2021/04/30 02:26:16;;;;;;;6.57;5.87;;;13.40;99.90;;;;;;5033157;28;20313;-69
2021/04/30 02:28:45;;;;;;;6.37;5.70;;;13.50;99.90;;;;;;5030600;28;20781;-69
2021/04/30 02:31:13;;;;;;;10.20;6.53;;;13.50;99.90;;;;;;5032065;28;20252;-67
2021/04/30 02:33:39;;;;;;;9.10;7.23;;;13.40;99.90;;;;;;5030812;28;20621;-68
2021/04/30 02:36:06;;;;;;;8.67;6.47;;;13.40;99.90;;;;;;5031701;28;20210;-69
2021/04/30 02:38:33;;;;;;;9.97;6.63;;;13.40;99.90;;;;;;5032188;28;20672;-67
2021/04/30 02:41:00;;;;;;;9.57;6.60;;;13.30;99.90;;;;;;5031528;28;20230;-67
2021/04/30 02:43:26;;;;;;;7.80;6.17;;;13.30;99.90;;;;;;5031990;28;20217;-67
2021/04/30 02:45:53;;;;;;;8.27;6.23;;;13.30;99.90;;;;;;5034674;28;20743;-68
2021/04/30 02:48:26;;;;;;;9.73;5.93;;;13.30;99.90;;;;;;5033141;28;20233;-68
2021/04/30 02:50:53;;;;;;;8.27;6.10;;;13.30;99.90;;;;;;5035475;28;20318;-67
2021/04/30 02:53:19;;;;;;;7.57;6.77;;;13.30;99.90;;;;;;5036081;28;20278;-69
2021/04/30 02:55:45;;;;;;;7.70;6.07;;;13.30;99.90;;;;;;5035916;28;20198;-69
2021/04/30 02:58:12;;;;;;;8.90;6.83;;;13.30;99.90;;;;;;5036160;28;20213;-68
2021/04/30 03:00:39;;;;;;;6.80;5.93;;;13.30;99.90;;;;;;5036501;28;20319;-69
2021/04/30 03:03:05;;;;;;;6.67;5.97;;;13.30;99.90;;;;;;5034195;28;20282;-68
2021/04/30 03:05:33;;;;;;;9.50;7.13;;;13.30;99.90;;;;;;5033767;28;20241;-69
2021/04/30 03:08:00;;;;;;;7.60;6.17;;;13.30;99.90;;;;;;5032862;28;20242;-68
2021/04/30 03:10:26;;;;;;;8.70;6.53;;;13.20;99.90;;;;;;5034170;28;20249;-68
2021/04/30 03:12:53;;;;;;;9.27;7.03;;;13.20;99.90;;;;;;5035934;28;20211;-68
2021/04/30 03:15:20;;;;;;;9.60;6.97;;;13.20;99.90;;;;;;5035536;28;20234;-68
2021/04/30 03:17:47;;;;;;;8.07;6.83;;;13.20;99.90;;;;;;5034815;28;20241;-67
2021/04/30 03:20:15;;;;;;;12.10;7.77;;;13.20;99.90;;;;;;5034904;28;20289;-67
2021/04/30 03:22:42;;;;;;;9.17;6.90;;;13.20;99.90;;;;;;5035632;28;20260;-68
2021/04/30 03:25:11;;;;;;;8.60;7.40;;;13.10;99.90;;;;;;5034864;28;20834;-68
2021/04/30 03:27:37;;;;;;;8.80;7.10;;;13.10;99.90;;;;;;5033323;28;20293;-68
2021/04/30 03:30:06;;;;;;;9.20;6.50;;;13.10;99.90;;;;;;5032300;28;20206;-69
2021/04/30 03:32:32;;;;;;;9.37;7.17;;;13.10;99.90;;;;;;5030934;28;20778;-68
2021/04/30 03:34:59;;;;;;;8.23;6.97;;;13.10;99.90;;;;;;5035379;28;20209;-68
2021/04/30 03:37:25;;;;;;;10.37;6.53;;;13.10;99.90;;;;;;5032792;28;20636;-68
2021/04/30 03:39:52;;;;;;;7.17;6.10;;;13.10;99.90;;;;;;5032334;28;20234;-69
2021/04/30 03:42:18;;;;;;;8.53;6.30;;;13.00;99.90;;;;;;5036056;28;20207;-68
2021/04/30 03:44:45;;;;;;;9.03;6.70;;;13.10;99.90;;;;;;5034998;28;20199;-68
2021/04/30 03:47:12;;;;;;;7.67;6.43;;;13.00;99.90;;;;;;5034271;28;20203;-68
2021/04/30 03:49:38;;;;;;;9.77;6.13;;;13.00;99.90;;;;;;5035071;28;20293;-68
2021/04/30 03:52:05;;;;;;;7.33;6.10;;;13.00;99.90;;;;;;5035648;28;20256;-69
2021/04/30 03:54:32;;;;;;;7.97;6.67;;;13.00;99.90;;;;;;5033842;28;20245;-68
2021/04/30 03:56:59;;;;;;;7.80;6.13;;;13.10;99.90;;;;;;5034831;28;20230;-69
2021/04/30 03:59:25;;;;;;;8.27;6.60;;;13.00;99.90;;;;;;5032759;28;20203;-69
2021/04/30 04:01:52;;;;;;;7.77;6.80;;;13.00;99.90;;;;;;5034429;28;20606;-68
2021/04/30 04:04:19;;;;;;;6.93;6.17;;;13.00;99.90;;;;;;5034004;28;20675;-68
2021/04/30 04:06:45;;;;;;;7.50;6.17;;;12.90;99.90;;;;;;5033489;28;20203;-68
2021/04/30 04:09:12;;;;;;;7.70;6.10;;;12.90;99.90;;;;;;5031608;28;20650;-68
2021/04/30 04:11:38;;;;;;;8.00;5.50;;;12.90;99.90;;;;;;5034945;28;20301;-68
2021/04/30 04:14:06;;;;;;;7.90;6.07;;;12.90;99.90;;;;;;5032519;28;20681;-69
2021/04/30 04:16:32;;;;;;;8.67;6.50;;;12.90;99.90;;;;;;5032325;28;20234;-69
2021/04/30 04:18:58;;;;;;;6.80;5.97;;;12.90;99.90;;;;;;5033162;28;20194;-68
2021/04/30 04:21:25;;;;;;;9.23;6.33;;;12.80;99.90;;;;;;5034502;28;20207;-69
2021/04/30 04:23:51;;;;;;;6.33;5.70;;;12.80;99.90;;;;;;5031817;28;20279;-69
2021/04/30 04:26:18;;;;;;;7.83;6.50;;;12.80;99.90;;;;;;5034178;28;20227;-69
2021/04/30 04:28:44;;;;;;;9.47;6.30;;;12.80;99.90;;;;;;5035001;28;20317;-69
2021/04/30 04:31:11;;;;;;;7.23;5.70;;;12.80;99.90;;;;;;5031479;28;20199;-69
2021/04/30 04:33:37;;;;;;;7.47;6.13;;;12.80;99.90;;;;;;5033980;28;20246;-68
2021/04/30 04:36:05;;;;;;;7.20;5.10;;;12.80;99.90;;;;;;5031221;28;20345;-68
2021/04/30 04:38:31;;;;;;;9.40;5.57;;;12.80;99.90;;;;;;5033150;28;20214;-69
2021/04/30 04:40:57;;;;;;;7.57;5.53;;;12.80;99.90;;;;;;5033352;28;20660;-68
2021/04/30 04:43:24;;;;;;;7.47;5.90;;;12.80;99.90;;;;;;5034727;28;20206;-69
2021/04/30 04:45:51;;;;;;;6.63;5.80;;;12.80;99.90;;;;;;5033542;28;20199;-68
2021/04/30 04:48:18;;;;;;;8.57;5.50;;;12.80;99.90;;;;;;5034167;28;20222;-67
2021/04/30 04:50:45;;;;;;;8.77;5.60;;;12.80;99.90;;;;;;5031713;28;20707;-68
2021/04/30 04:53:11;;;;;;;7.10;6.10;;;12.70;99.90;;;;;;5029377;28;20204;-68
2021/04/30 04:55:37;;;;;;;8.67;5.90;;;12.80;99.90;;;;;;5033865;28;20310;-68
2021/04/30 04:58:04;;;;;;;7.10;6.23;;;12.80;99.90;;;;;;5028572;28;20261;-67
2021/04/30 05:00:32;;;;;;;8.73;6.30;;;12.90;99.90;;;;;;5030942;28;20270;-68
2021/04/30 05:02:59;;;;;;;6.57;5.63;;;13.00;99.90;;;;;;5034303;28;20202;-68
2021/04/30 05:05:26;;;;;;;8.23;6.50;;;12.90;99.90;;;;;;5031270;28;20198;-69
2021/04/30 05:07:53;;;;;;;8.40;5.63;;;12.90;99.90;;;;;;5029738;28;20203;-68
2021/04/30 05:10:20;;;;;;;6.53;5.80;;;13.00;99.90;;;;;;5032534;28;20562;-69
2021/04/30 05:12:46;;;;;;;8.23;6.00;;;13.00;99.90;;;;;;5028664;28;20297;-68
2021/04/30 05:15:14;;;;;;;9.23;6.50;;;13.10;99.90;;;;;;5033310;28;20682;-68
2021/04/30 05:17:43;;;;;;;7.40;6.30;;;13.20;99.90;;;;;;5033567;28;20202;-69
2021/04/30 05:20:11;;;;;;;11.17;6.00;;;13.30;99.90;;;;;;5030970;28;20720;-68
2021/04/30 05:22:41;;;;;;;7.30;5.77;;;13.40;99.90;;;;;;5033729;28;20554;-68
2021/04/30 05:25:09;;;;;;;11.40;6.43;;;13.40;99.90;;;;;;5029783;28;20602;-68
2021/04/30 05:27:36;;;;;;;8.23;6.77;;;13.50;99.90;;;;;;5026821;28;20719;-68
2021/04/30 05:30:03;;;;;;;7.43;6.37;;;13.50;99.90;;;;;;5030707;28;20313;-69
2021/04/30 05:32:29;;;;;;;7.00;5.83;;;13.60;99.90;;;;;;5033248;28;20245;-68
2021/04/30 05:34:57;;;;;;;7.80;6.60;;;13.70;99.90;;;;;;5033258;28;20225;-69
2021/04/30 05:37:23;;;;;;;11.43;6.23;;;13.80;99.90;;;;;;5027691;28;20203;-69
2021/04/30 05:39:50;;;;;;;8.17;6.00;;;13.90;99.90;;;;;;5033517;28;20218;-68
2021/04/30 05:42:17;;;;;;;7.23;5.87;;;13.90;99.90;;;;;;5033135;28;20795;-69
2021/04/30 05:44:43;;;;;;;7.63;5.63;;;14.00;99.90;;;;;;5027510;28;20218;-69
2021/04/30 05:47:10;;;;;;;9.60;6.00;;;14.10;99.90;;;;;;5032352;28;20206;-68
2021/04/30 05:49:36;;;;;;;9.87;6.23;;;14.20;99.90;;;;;;5031964;28;20662;-68
2021/04/30 05:52:02;;;;;;;7.60;6.27;;;14.20;99.90;;;;;;5033188;28;20229;-67
2021/04/30 05:54:31;;;;;;;6.63;5.93;;;14.20;99.90;;;;;;5030322;28;20206;-68
2021/04/30 05:56:58;;;;;;;8.10;6.10;;;14.20;99.90;;;;;;5030979;28;20207;-69
2021/04/30 05:59:25;;;;;;;6.57;5.97;;;14.10;99.90;;;;;;5029422;28;20307;-71
2021/04/30 06:01:51;;;;;;;8.03;6.80;;;14.10;99.90;;;;;;5031303;28;20701;-70
2021/04/30 06:04:18;;;;;;;9.10;6.80;;;14.20;99.90;;;;;;5031694;28;20301;-67
2021/04/30 06:06:49;;;;;;;9.17;6.93;;;14.20;99.90;;;;;;5031995;28;20268;-68
2021/04/30 06:09:16;;;;;;;9.13;7.37;;;14.20;99.90;;;;;;5031556;28;20679;-68
2021/04/30 06:11:42;;;;;;;10.27;8.07;;;14.30;99.90;;;;;;5031796;28;20609;-70
2021/04/30 06:14:12;;;;;;;12.37;7.90;;;14.40;99.90;;;;;;5028765;28;20242;-73
2021/04/30 06:16:39;;;;;;;9.87;6.97;;;14.40;99.90;;;;;;5025763;28;20215;-71
2021/04/30 06:19:06;;;;;;;11.77;6.87;;;14.50;99.90;;;;;;5033393;28;20195;-72
2021/04/30 06:21:33;;;;;;;15.23;7.93;;;14.60;99.90;;;;;;5035868;28;20207;-72
2021/04/30 06:24:01;;;;;;;9.20;7.23;;;14.60;99.90;;;;;;5034811;28;20264;-71
2021/04/30 06:26:27;;;;;;;8.83;7.90;;;14.70;99.90;;;;;;5033616;28;20211;-71
2021/04/30 06:28:54;;;;;;;7.93;6.77;;;14.70;99.90;;;;;;5033856;28;20226;-73
2021/04/30 06:31:21;;;;;;;9.97;8.43;;;14.80;99.90;;;;;;5035277;28;20731;-71
2021/04/30 06:33:48;;;;;;;11.83;8.37;;;14.80;99.90;;;;;;5035235;28;20242;-72
2021/04/30 06:36:15;;;;;;;12.10;8.27;;;14.90;99.90;;;;;;5036854;28;20226;-72
2021/04/30 06:38:42;;;;;;;8.90;8.00;;;15.00;99.90;;;;;;5035975;28;20293;-70
2021/04/30 06:41:09;;;;;;;10.63;8.77;;;15.10;99.90;;;;;;5035454;28;20221;-71
2021/04/30 06:43:35;;;;;;;8.87;7.43;;;15.20;99.90;;;;;;5035205;28;20306;-71
2021/04/30 06:46:03;;;;;;;15.30;7.97;;;15.30;99.90;;;;;;5032640;28;20207;-72
2021/04/30 06:48:31;;;;;;;9.87;7.90;;;15.30;99.90;;;;;;5034578;28;20279;-70
2021/04/30 06:50:57;;;;;;;11.03;7.60;;;15.40;99.60;;;;;;5035176;28;20241;-69
2021/04/30 06:53:24;;;;;;;8.50;7.47;;;15.40;98.90;;;;;;5037252;28;20214;-70
2021/04/30 06:55:50;;;;;;;8.77;7.83;;;15.50;97.90;;;;;;5034514;28;20297;-71
2021/04/30 06:58:17;;;;;;;8.50;7.57;;;15.50;97.50;;;;;;5035167;28;20207;-71
2021/04/30 07:00:45;;;;;;;9.27;7.50;;;15.70;97.00;;;;;;5035295;28;20282;-72
2021/04/30 07:03:11;;;;;;;8.77;7.77;;;15.80;96.10;;;;;;5035102;28;20289;-71
2021/04/30 07:05:39;;;;;;;8.63;7.37;;;15.90;95.20;;;;;;5034923;28;20219;-71
2021/04/30 07:08:05;;;;;;;9.70;7.50;;;15.90;94.30;;;;;;5032702;28;20214;-71
2021/04/30 07:10:33;;;;;;;10.97;8.13;;;15.90;93.90;;;;;;5033815;28;20211;-70
2021/04/30 07:12:59;;;;;;;11.27;8.03;;;16.00;94.10;;;;;;5033329;28;20207;-70
2021/04/30 07:15:26;;;;;;;14.43;9.77;;;16.00;93.90;;;;;;5031989;28;20206;-68
2021/04/30 07:17:53;;;;;;;12.27;8.33;;;16.10;92.90;;;;;;5029119;28;20203;-70
2021/04/30 07:20:19;;;;;;;9.70;7.73;;;16.20;92.50;;;;;;5030538;28;20218;-70
2021/04/30 07:22:46;;;;;;;8.50;7.40;;;16.30;92.00;;;;;;5033881;28;20249;-72
2021/04/30 07:25:14;;;;;;;9.77;7.63;;;16.40;91.60;;;;;;5034018;28;20294;-72
2021/04/30 07:27:40;;;;;;;11.57;8.17;;;16.50;91.20;;;;;;5030195;28;20352;-68
2021/04/30 07:30:08;;;;;;;9.67;7.60;;;16.50;90.50;;;;;;5032725;28;20623;-68
2021/04/30 07:32:34;;;;;;;9.07;7.87;;;16.60;89.90;;;;;;5031903;28;20253;-71
2021/04/30 07:35:01;;;;;;;9.33;7.70;;;16.60;88.70;;;;;;5030626;28;20819;-72
2021/04/30 07:37:27;;;;;;;10.03;7.70;;;16.70;87.80;;;;;;5033523;28;20206;-68
2021/04/30 07:39:54;;;;;;;9.30;7.80;;;16.80;87.00;;;;;;5033856;28;20289;-68
2021/04/30 07:42:21;;;;;;;8.93;7.97;;;16.80;85.30;;;;;;5033683;28;20202;-71
2021/04/30 07:44:47;;;;;;;8.90;7.93;;;16.90;85.00;;;;;;5034117;28;20294;-68
2021/04/30 07:47:13;;;;;;;8.67;7.57;;;17.00;83.70;;;;;;5030313;28;20206;-70
2021/04/30 07:49:40;;;;;;;9.80;7.90;;;17.10;83.20;;;;;;5033507;28;20222;-68
2021/04/30 07:52:07;;;;;;;10.37;7.43;;;17.20;81.60;;;;;;5032289;28;20210;-70
2021/04/30 07:54:33;;;;;;;8.97;7.70;;;17.20;79.80;;;;;;5034175;28;20290;-71
2021/04/30 07:57:02;;;;;;;9.27;8.33;;;17.30;78.30;;;;;;5033736;28;20289;-69
2021/04/30 07:59:30;;;;;;;10.80;8.27;;;17.30;77.30;;;;;;5031151;28;20286;-68
2021/04/30 08:01:56;;;;;;;10.70;8.53;;;17.40;75.70;;;;;;5031859;28;20217;-69
2021/04/30 08:04:23;;;;;;;12.13;9.40;;;17.40;75.10;;;;;;5031184;28;20211;-69
2021/04/30 08:06:49;;;;;;;12.23;10.02;;;17.50;74.70;;;;;;5031806;28;20206;-70
2021/04/30 08:09:16;;;;;;;11.93;10.10;;;17.50;74.50;;;;;;5032863;28;20214;-70
2021/04/30 08:11:42;;;;;;;12.40;10.60;;;17.60;74.20;;;;;;5030796;28;20198;-71
2021/04/30 08:14:09;;;;;;;10.47;8.80;;;17.60;74.10;;;;;;5030844;28;20711;-71
2021/04/30 08:16:36;;;;;;;10.43;8.37;;;17.70;72.90;;;;;;5032831;28;20667;-71
2021/04/30 08:19:03;;;;;;;9.48;7.75;;;17.90;71.60;;;;;;5032974;28;20213;-70
2021/04/30 08:21:30;;;;;;;7.60;6.80;;;17.90;70.10;;;;;;5030995;28;20221;-72
2021/04/30 08:23:57;;;;;;;9.23;7.20;;;17.90;68.40;;;;;;5033183;28;20238;-69
2021/04/30 08:26:24;;;;;;;9.17;7.13;;;17.90;67.20;;;;;;5029418;28;20428;-70
2021/04/30 08:28:54;;;;;;;7.20;5.90;;;18.10;67.20;;;;;;5032713;28;20691;-71
2021/04/30 08:31:22;;;;;;;7.53;5.75;;;18.30;66.90;;;;;;5031178;28;20202;-69
2021/04/30 08:33:49;;;;;;;6.90;6.10;;;18.50;63.30;;;;;;5032531;28;20230;-70
2021/04/30 08:36:15;;;;;;;8.52;6.38;;;18.50;60.30;;;;;;5032888;28;20289;-71
2021/04/30 08:38:42;;;;;;;12.88;6.57;;;18.40;58.80;;;;;;5030270;28;20220;-71
2021/04/30 08:41:09;;;;;;;10.00;5.85;;;18.30;58.30;;;;;;5032020;28;20305;-68
2021/04/30 08:43:37;;;;;;;6.60;5.90;;;18.20;57.80;;;;;;5032937;28;20218;-69
2021/04/30 08:46:04;;;;;;;6.18;5.05;;;18.30;57.70;;;;;;5032959;28;20234;-69
2021/04/30 08:48:33;;;;;;;9.70;5.30;;;18.30;57.30;;;;;;5032727;28;20234;-70
2021/04/30 08:50:59;;;;;;;8.13;5.07;;;18.40;57.20;;;;;;5030608;28;20291;-69
2021/04/30 08:53:26;;;;;;;7.43;6.25;;;18.60;57.20;;;;;;5030194;28;20297;-70
2021/04/30 08:55:53;;;;;;;8.25;5.97;;;18.80;56.20;;;;;;5033768;28;20250;-71
2021/04/30 08:58:25;;;;;;;8.43;6.65;;;18.70;55.80;;;;;;5031396;28;20219;-69
2021/04/30 09:00:52;;;;;;;10.70;6.03;;;18.70;56.60;;;;;;5031869;28;20202;-68
2021/04/30 09:03:18;;;;;;;6.70;6.03;;;18.70;57.00;;;;;;5032665;28;20648;-70
2021/04/30 09:05:51;;;;;;;10.05;6.78;;;18.80;57.60;;;;;;5033311;28;20206;-70
2021/04/30 09:08:18;;;;;;;7.68;6.03;;;19.10;57.40;;;;;;5031840;28;20692;-71
2021/04/30 09:10:49;;;;;;;10.13;6.55;;;19.20;57.10;;;;;;5031536;28;20217;-72
2021/04/30 09:13:17;;;;;;;8.18;6.50;;;19.20;57.10;;;;;;5029445;28;20198;-72
2021/04/30 09:15:46;;;;;;;7.38;6.50;;;19.30;57.00;;;;;;5030405;28;20664;-71
2021/04/30 09:18:21;;;;;;;10.52;6.85;;;19.30;56.80;;;;;;5030213;28;20207;-72
2021/04/30 09:20:48;;;;;;;12.95;7.50;;;19.50;57.70;;;;;;5030675;28;20551;-72
2021/04/30 09:23:33;;;;;;;7.80;6.63;;;19.60;57.20;;;;;;5027753;28;20203;-71
2021/04/30 09:26:00;;;;;;;8.52;6.63;;;19.60;56.10;;;;;;5033319;28;20292;-71
2021/04/30 09:28:26;;;;;;;11.35;8.15;;;19.70;56.90;;;;;;5029696;28;20229;-71
2021/04/30 09:30:53;;;;;;;8.75;6.93;;;19.80;56.30;;;;;;5031071;28;20235;-73
2021/04/30 09:33:19;;;;;;;8.77;7.78;;;20.00;56.90;;;;;;5031489;28;20595;-72
2021/04/30 09:35:48;;;;;;;9.73;6.93;;;20.20;55.90;;;;;;5025358;28;20253;-73
2021/04/30 09:38:23;;;;;;;8.95;6.85;;;20.50;55.20;;;;;;5034709;28;20640;-74
2021/04/30 09:41:07;;;;;;;8.65;7.32;;;20.40;54.50;;;;;;5033009;28;20249;-72
2021/04/30 09:43:46;;;;;;;9.23;7.85;;;20.40;55.10;;;;;;5032558;28;20259;-72
2021/04/30 09:46:26;;;;;;;13.40;8.70;;;20.50;54.20;;;;;;5032043;28;20210;-71
2021/04/30 09:48:58;;;;;;;9.95;7.93;;;20.50;53.10;;;;;;5031597;28;20222;-74
2021/04/30 09:51:44;;;;;;;8.18;6.35;;;20.50;53.00;;;;;;5029108;28;20215;-71
2021/04/30 09:54:22;;;;;;;9.32;7.93;;;20.60;53.00;;;;;;5034934;28;20654;-70
2021/04/30 09:57:02;;;;;;;8.80;7.72;;;20.60;52.70;;;;;;5033793;28;20199;-71
2021/04/30 09:59:29;;;;;;;10.75;8.23;;;20.80;52.20;;;;;;5033466;28;20230;-71
2021/04/30 10:02:11;;;;;;;10.05;8.48;;;20.80;51.60;;;;;;5035674;28;20202;-72
2021/04/30 10:04:39;;;;;;;9.80;8.57;;;20.70;51.50;;;;;;5034196;28;20356;-70
2021/04/30 10:07:07;;;;;;;12.18;8.45;;;20.60;51.50;;;;;;5032974;28;20646;-71
2021/04/30 10:09:35;;;;;;;10.43;8.60;;;20.50;52.50;;;;;;5032523;28;20684;-71
2021/04/30 10:12:23;;;;;;;10.95;7.65;;;20.50;51.60;;;;;;5035753;28;20202;-71
2021/04/30 10:14:51;;;;;;;12.57;8.20;;;20.40;51.30;;;;;;5036006;28;20263;-71
2021/04/30 10:17:17;;;;;;;8.65;7.75;;;20.40;50.20;;;;;;5036019;28;20574;-72
2021/04/30 10:19:45;;;;;;;10.02;7.75;;;20.30;50.00;;;;;;5036009;28;20230;-71
2021/04/30 10:22:15;;;;;;;9.63;8.52;;;20.20;51.10;;;;;;5036359;28;20638;-71
2021/04/30 10:24:47;;;;;;;14.93;7.90;;;20.30;50.30;;;;;;5032855;28;20254;-72
2021/04/30 10:27:18;;;;;;;9.73;7.95;;;20.30;50.20;;;;;;5031612;28;20222;-72
2021/04/30 10:29:52;;;;;;;8.88;7.20;;;20.40;50.30;;;;;;5032115;28;20716;-73
2021/04/30 10:32:22;;;;;;;9.07;6.55;;;20.70;50.00;;;;;;5034492;28;20257;-70
2021/04/30 10:34:51;;;;;;;9.15;7.20;;;20.80;48.80;;;;;;5032105;28;20339;-72
2021/04/30 10:37:23;;;;;;;8.48;7.15;;;20.70;48.70;;;;;;5031061;28;20294;-71
2021/04/30 10:39:58;;;;;;;8.13;6.65;;;20.70;48.60;;;;;;5034997;28;20399;-71
2021/04/30 10:42:31;;;;;;;8.05;6.90;;;20.60;48.70;;;;;;5033418;28;20205;-72
2021/04/30 10:45:01;;;;;;;10.77;6.95;;;20.60;48.60;;;;;;5036382;28;20234;-73
2021/04/30 10:47:28;;;;;;;9.98;6.18;;;20.70;49.10;;;;;;5031685;28;20210;-71
2021/04/30 10:50:19;;;;;;;8.32;7.45;;;20.80;48.40;;;;;;5033760;28;20229;-71
2021/04/30 10:52:47;;;;;;;7.10;6.40;;;20.70;48.00;;;;;;5032872;28;20576;-72
2021/04/30 10:55:17;;;;;;;7.82;5.57;;;20.70;47.90;;;;;;5034386;28;20206;-71
2021/04/30 10:57:57;;;;;;;6.30;5.65;;;20.70;48.00;;;;;;5031243;28;20198;-71
2021/04/30 11:00:44;;;;;;;6.47;5.82;;;20.80;47.60;;;;;;5033511;28;20209;-70
2021/04/30 11:03:17;;;;;;;6.60;5.95;;;20.90;47.10;;;;;;5032118;28;20624;-73
2021/04/30 11:05:54;;;;;;;8.70;5.97;;;20.80;46.90;;;;;;5032939;28;20290;-73
2021/04/30 11:08:36;;;;;;;6.32;5.63;;;20.80;47.10;;;;;;5034343;28;20270;-72
2021/04/30 11:11:05;;;;;;;6.95;6.13;;;20.90;47.10;;;;;;5034291;28;20207;-74
2021/04/30 11:13:32;;;;;;;10.38;5.75;;;20.90;46.70;;;;;;5032094;28;20234;-73
2021/04/30 11:16:01;;;;;;;8.20;6.07;;;21.00;46.50;;;;;;5034772;28;20656;-74
2021/04/30 11:18:30;;;;;;;6.05;5.55;;;21.00;46.40;;;;;;5032632;28;20211;-74
2021/04/30 11:20:59;;;;;;;6.15;5.43;;;21.00;46.40;;;;;;5033598;28;20206;-74
2021/04/30 11:23:27;;;;;;;9.07;5.90;;;21.00;46.60;;;;;;5032596;28;20206;-73
2021/04/30 11:26:11;;;;;;;7.03;6.30;;;21.00;46.00;;;;;;5033442;28;20256;-72
2021/04/30 11:29:09;;;;;;;6.72;6.05;;;20.80;46.30;;;;;;5033765;28;20254;-73
2021/04/30 11:31:37;;;;;;;8.20;5.97;;;20.60;46.80;;;;;;5031356;28;20293;-73
2021/04/30 11:34:22;;;;;;;6.40;5.75;;;20.60;47.30;;;;;;5035104;28;20292;-74
2021/04/30 11:36:57;;;;;;;6.85;6.20;;;20.60;46.90;;;;;;5031472;28;20245;-74
2021/04/30 11:39:30;;;;;;;6.55;5.95;;;20.60;46.90;;;;;;5035438;28;20671;-75
2021/04/30 11:41:59;;;;;;;7.50;6.80;;;20.60;46.50;;;;;;5034159;28;20289;-72
2021/04/30 11:44:26;;;;;;;8.88;6.00;;;20.70;46.50;;;;;;5028795;28;20789;-71
2021/04/30 11:46:59;;;;;;;6.68;6.07;;;20.70;46.30;;;;;;5032425;28;20206;-73
2021/04/30 11:49:26;;;;;;;7.55;6.80;;;20.70;46.50;;;;;;5033326;28;20234;-71
2021/04/30 11:51:52;;;;;;;7.60;6.80;;;20.70;46.20;;;;;;5033394;28;20240;-69
2021/04/30 11:54:20;;;;;;;6.60;5.95;;;20.70;46.50;;;;;;5033028;28;20329;-73
2021/04/30 11:56:59;;;;;;;7.47;6.75;;;20.50;46.30;;;;;;5032002;28;20206;-70
2021/04/30 11:59:25;;;;;;;8.43;6.55;;;20.40;46.90;;;;;;5033563;28;20207;-69
2021/04/30 12:02:05;;;;;;;9.20;6.72;;;20.40;46.90;;;;;;5034103;28;20206;-69
2021/04/30 12:04:38;;;;;;;8.93;6.65;;;20.20;46.80;;;;;;5031751;28;20252;-69
2021/04/30 12:07:06;;;;;;;7.40;6.60;;;20.20;47.60;;;;;;5033920;28;20210;-70
2021/04/30 12:09:32;;;;;;;7.22;6.53;;;20.30;47.00;;;;;;5033732;28;20219;-73
2021/04/30 12:12:17;;;;;;;7.90;7.07;;;20.30;47.20;;;;;;5033516;28;20714;-71
2021/04/30 12:15:03;;;;;;;7.35;6.65;;;20.10;46.90;;;;;;5033943;28;20676;-71
2021/04/30 12:17:36;;;;;;;6.70;6.03;;;19.90;47.30;;;;;;5035282;28;20206;-72
2021/04/30 12:20:09;;;;;;;8.15;7.28;;;19.90;48.10;;;;;;5032811;28;20191;-72
2021/04/30 12:22:44;;;;;;;8.27;6.47;;;19.90;47.60;;;;;;5032519;28;20270;-71
2021/04/30 12:25:23;;;;;;;7.18;6.47;;;19.90;47.60;;;;;;5032844;28;20568;-69
2021/04/30 12:27:51;;;;;;;6.63;6.03;;;19.90;47.70;;;;;;5030979;28;20191;-71
2021/04/30 12:30:28;;;;;;;7.13;6.40;;;19.90;48.10;;;;;;5033099;28;20313;-72
2021/04/30 12:32:56;;;;;;;7.10;5.95;;;20.00;48.40;;;;;;5032820;28;20277;-71
2021/04/30 12:35:24;;;;;;;7.13;6.05;;;20.20;48.20;;;;;;5030387;28;20213;-70
2021/04/30 12:37:51;;;;;;;8.32;6.78;;;20.10;47.90;;;;;;5032342;28;20210;-71
2021/04/30 12:40:23;;;;;;;7.28;6.53;;;20.00;48.40;;;;;;5031318;28;20290;-70
2021/04/30 12:42:51;;;;;;;7.80;7.10;;;19.90;48.80;;;;;;5031577;28;20230;-73
2021/04/30 12:45:19;;;;;;;8.07;6.95;;;20.00;48.80;;;;;;5032300;28;20206;-74
2021/04/30 12:47:47;;;;;;;7.50;6.80;;;20.10;48.50;;;;;;5030523;28;20213;-73
2021/04/30 12:50:19;;;;;;;8.18;7.38;;;20.10;48.20;;;;;;5029707;28;20226;-72